createdAt,value
2018-05-31T00:01:03.139Z,7.78
2018-05-31T00:06:05.683Z,7.53
2018-05-31T00:11:08.245Z,7.40
2018-05-31T00:16:11.573Z,8.05
2018-05-31T00:21:15.019Z,8.23
2018-05-31T00:26:17.540Z,8.43
2018-05-31T00:31:20.063Z,7.70
2018-05-31T00:36:22.623Z,7.60
2018-05-31T00:41:25.150Z,8.90
2018-05-31T00:46:28.519Z,8.40
2018-05-31T00:51:31.212Z,8.90
2018-05-31T00:56:33.745Z,8.00
2018-05-31T01:01:37.060Z,8.90
2018-05-31T01:06:39.619Z,8.67
2018-05-31T01:11:42.140Z,9.57
2018-05-31T01:16:45.335Z,8.82
2018-05-31T01:21:47.915Z,9.43
2018-05-31T01:26:51.223Z,9.45
2018-05-31T01:31:53.783Z,10.10
2018-05-31T01:36:57.126Z,9.68
2018-05-31T01:41:59.711Z,9.90
2018-05-31T01:47:02.227Z,9.50
2018-05-31T01:52:04.755Z,9.48
2018-05-31T01:57:08.083Z,10.32
2018-05-31T02:02:11.836Z,9.80
2018-05-31T02:07:16.473Z,9.40
2018-05-31T02:12:19.067Z,10.55
2018-05-31T02:17:22.577Z,8.90
2018-05-31T02:22:25.138Z,8.83
2018-05-31T02:27:28.605Z,9.00
2018-05-31T02:32:31.137Z,8.50
2018-05-31T02:37:34.445Z,8.50
2018-05-31T02:42:37.734Z,9.00
2018-05-31T02:47:40.303Z,7.90
2018-05-31T02:52:42.874Z,8.75
2018-05-31T02:57:46.319Z,9.37
2018-05-31T03:02:48.843Z,8.20
2018-05-31T03:07:51.396Z,8.80
2018-05-31T03:12:55.829Z,8.80
2018-05-31T03:17:58.367Z,7.90
2018-05-31T03:23:00.927Z,9.10
2018-05-31T03:28:05.440Z,9.25
2018-05-31T03:33:08.308Z,8.83
2018-05-31T03:38:10.804Z,9.10
2018-05-31T03:43:14.096Z,9.23
2018-05-31T03:48:16.615Z,8.32
2018-05-31T03:53:19.922Z,8.70
2018-05-31T03:58:23.353Z,8.20
2018-05-31T04:03:26.720Z,8.10
2018-05-31T04:08:32.628Z,7.62
2018-05-31T04:13:35.929Z,8.90
2018-05-31T04:18:38.469Z,8.03
2018-05-31T04:23:40.997Z,8.00
2018-05-31T04:28:43.544Z,7.73
2018-05-31T04:33:46.080Z,7.87
2018-05-31T04:38:48.589Z,7.97
2018-05-31T04:43:53.248Z,7.70
2018-05-31T04:48:57.071Z,7.93
2018-05-31T04:54:01.210Z,7.00
2018-05-31T04:59:03.755Z,7.00
2018-05-31T05:04:06.312Z,6.30
2018-05-31T05:09:08.890Z,6.43
2018-05-31T05:14:11.413Z,6.40
2018-05-31T05:19:13.927Z,7.25
2018-05-31T05:24:16.447Z,6.70
2018-05-31T05:29:20.142Z,7.03
2018-05-31T05:34:22.651Z,6.80
2018-05-31T05:39:25.383Z,7.60
2018-05-31T05:44:27.964Z,8.20
2018-05-31T05:49:31.343Z,8.00
2018-05-31T05:54:33.906Z,8.70
2018-05-31T05:59:36.496Z,9.23
2018-05-31T06:04:39.063Z,9.80
2018-05-31T06:09:42.367Z,8.65
2018-05-31T06:14:45.699Z,9.10
2018-05-31T06:19:48.293Z,9.00
2018-05-31T06:24:50.909Z,9.32
2018-05-31T06:29:53.471Z,9.70
2018-05-31T06:34:56.899Z,9.82
2018-05-31T06:39:59.438Z,8.70
2018-05-31T06:45:03.949Z,8.40
2018-05-31T06:50:06.523Z,9.02
2018-05-31T06:55:10.292Z,8.50
2018-05-31T07:00:13.282Z,8.32
2018-05-31T07:05:26.927Z,7.20
2018-05-31T07:10:30.047Z,7.32
2018-05-31T07:15:34.569Z,7.37
2018-05-31T07:20:47.578Z,7.32
2018-05-31T07:25:51.727Z,8.00
2018-05-31T07:30:54.244Z,6.95
2018-05-31T07:36:01.058Z,7.43
2018-05-31T07:41:03.658Z,7.47
2018-05-31T07:46:06.373Z,7.80
2018-05-31T07:51:08.954Z,7.70
2018-05-31T07:56:11.526Z,8.30
2018-05-31T08:01:14.868Z,7.78
2018-05-31T08:06:17.407Z,7.65
2018-05-31T08:11:22.108Z,7.37
2018-05-31T08:16:24.698Z,9.50
2018-05-31T08:21:27.370Z,7.25
2018-05-31T08:26:30.740Z,6.70
2018-05-31T08:31:33.436Z,7.25
2018-05-31T08:36:38.971Z,7.20
2018-05-31T08:41:41.506Z,8.00
2018-05-31T08:46:44.019Z,7.90
2018-05-31T08:51:48.565Z,8.50
2018-05-31T08:56:51.359Z,8.00
2018-05-31T09:01:53.904Z,8.83
2018-05-31T09:06:56.445Z,8.43
2018-05-31T09:11:59.764Z,8.60
2018-05-31T09:17:02.287Z,9.10
2018-05-31T09:22:04.854Z,7.72
2018-05-31T09:27:07.345Z,7.28
2018-05-31T09:32:11.577Z,7.43
2018-05-31T09:37:15.029Z,7.35
2018-05-31T09:42:18.343Z,8.20
2018-05-31T09:47:20.884Z,7.47
2018-05-31T09:52:24.204Z,7.30
2018-05-31T09:57:27.514Z,7.25
2018-05-31T10:02:30.832Z,7.23
2018-05-31T10:07:34.153Z,7.22
2018-05-31T10:12:36.674Z,7.62
2018-05-31T10:17:39.151Z,8.00
2018-05-31T10:22:42.564Z,7.55
2018-05-31T10:27:45.075Z,7.93
2018-05-31T10:32:47.576Z,7.80
2018-05-31T10:37:50.079Z,8.30
2018-05-31T10:42:52.599Z,7.70
2018-05-31T10:47:55.132Z,6.62
2018-05-31T10:52:57.660Z,7.20
2018-05-31T10:58:00.134Z,7.12
2018-05-31T11:03:02.673Z,6.60
2018-05-31T11:08:05.150Z,6.30
2018-05-31T11:13:07.783Z,5.90
2018-05-31T11:18:10.348Z,5.70
2018-05-31T11:23:12.855Z,5.00
2018-05-31T11:28:15.355Z,4.70
2018-05-31T11:33:20.190Z,5.32
2018-05-31T11:38:23.466Z,5.50
2018-05-31T11:43:25.988Z,5.50
2018-05-31T11:48:30.509Z,5.10
2018-05-31T11:53:33.040Z,5.90
2018-05-31T11:58:36.297Z,5.32
2018-05-31T12:03:38.839Z,5.28
2018-05-31T12:08:42.128Z,4.90
2018-05-31T12:13:44.667Z,4.40
2018-05-31T12:18:47.163Z,4.68
2018-05-31T12:23:49.690Z,5.28
2018-05-31T12:28:52.194Z,4.85
2018-05-31T12:33:54.696Z,4.80
2018-05-31T12:38:58.201Z,5.40
2018-05-31T12:44:00.792Z,5.40
2018-05-31T12:49:04.307Z,5.80
2018-05-31T12:54:06.812Z,7.45
2018-05-31T12:59:09.350Z,5.65
2018-05-31T13:04:12.701Z,10.88
2018-05-31T13:09:15.222Z,11.80
2018-05-31T13:14:18.668Z,7.93
2018-05-31T13:19:21.199Z,5.20
2018-05-31T13:24:27.351Z,6.68
2018-05-31T13:29:30.850Z,5.18
2018-05-31T13:34:33.444Z,5.72
2018-05-31T13:39:36.714Z,5.03
2018-05-31T13:44:39.211Z,4.40
2018-05-31T13:49:42.684Z,4.83
2018-05-31T13:54:45.195Z,5.30
2018-05-31T13:59:48.116Z,5.72
2018-05-31T14:04:51.124Z,5.70
2018-05-31T14:09:58.303Z,5.70
2018-05-31T14:15:00.888Z,5.40
2018-05-31T14:20:05.434Z,5.35
2018-05-31T14:25:07.979Z,6.20
2018-05-31T14:30:10.521Z,5.32
2018-05-31T14:35:15.135Z,4.60
2018-05-31T14:40:17.678Z,4.95
2018-05-31T14:45:20.975Z,4.60
2018-05-31T14:50:23.525Z,4.50
2018-05-31T14:55:26.054Z,4.70
2018-05-31T15:00:28.570Z,4.80
2018-05-31T15:05:31.844Z,7.55
2018-05-31T15:10:34.384Z,5.53
2018-05-31T15:15:37.687Z,5.78
2018-05-31T15:20:40.991Z,5.00
2018-05-31T15:25:43.499Z,5.28
2018-05-31T15:30:46.797Z,5.78
2018-05-31T15:35:49.339Z,5.25
2018-05-31T15:40:51.867Z,5.10
2018-05-31T15:45:54.399Z,5.15
2018-05-31T15:50:57.741Z,4.80
2018-05-31T15:56:00.271Z,4.50
2018-05-31T16:01:02.814Z,4.40
2018-05-31T16:06:05.343Z,4.27
2018-05-31T16:11:07.891Z,4.20
2018-05-31T16:16:10.431Z,4.05
2018-05-31T16:21:12.978Z,3.90
2018-05-31T16:26:15.512Z,3.80
2018-05-31T16:31:18.060Z,4.30
2018-05-31T16:36:20.632Z,3.90
2018-05-31T16:41:23.130Z,4.20
2018-05-31T16:46:26.405Z,3.90
2018-05-31T16:51:29.912Z,4.10
2018-05-31T16:56:32.470Z,4.60
2018-05-31T17:01:34.987Z,4.10
2018-05-31T17:06:37.536Z,4.47
2018-05-31T17:11:40.811Z,4.80
2018-05-31T17:16:43.365Z,5.03
2018-05-31T17:21:45.918Z,5.00
2018-05-31T17:26:49.246Z,4.60
2018-05-31T17:31:54.887Z,4.93
2018-05-31T17:36:57.967Z,5.18
2018-05-31T17:42:00.475Z,4.90
2018-05-31T17:47:05.187Z,5.00
2018-05-31T17:52:14.126Z,4.90
2018-05-31T17:57:16.680Z,4.30
2018-05-31T18:02:20.219Z,3.93
2018-05-31T18:07:22.836Z,4.20
2018-05-31T18:12:27.309Z,4.22
2018-05-31T18:17:29.861Z,4.82
2018-05-31T18:22:32.406Z,4.80
2018-05-31T18:27:34.958Z,5.75
2018-05-31T18:33:04.043Z,5.05
2018-05-31T18:38:07.365Z,8.30
2018-05-31T18:43:09.905Z,5.60
2018-05-31T18:48:12.439Z,5.50
2018-05-31T18:53:14.953Z,5.67
2018-05-31T18:58:17.512Z,5.62
2018-05-31T19:03:20.103Z,5.65
2018-05-31T19:08:22.661Z,5.60
2018-05-31T19:13:30.946Z,6.60
2018-05-31T19:18:40.017Z,7.03
2018-05-31T19:23:42.638Z,6.90
2018-05-31T19:28:45.152Z,6.40
2018-05-31T19:33:48.964Z,6.65
2018-05-31T19:38:52.511Z,7.53
2018-05-31T19:44:01.529Z,6.50
2018-05-31T19:49:05.862Z,7.07
2018-05-31T19:54:08.449Z,7.20
2018-05-31T19:59:16.678Z,7.65
2018-05-31T20:04:19.228Z,7.10
2018-05-31T20:09:21.857Z,7.90
2018-05-31T20:14:24.500Z,7.18
2018-05-31T20:19:27.148Z,7.15
2018-05-31T20:24:29.940Z,7.80
2018-05-31T20:29:32.481Z,7.55
2018-05-31T20:34:38.990Z,7.18
2018-05-31T20:39:41.561Z,7.37
2018-05-31T20:44:44.872Z,7.53
2018-05-31T20:49:49.123Z,8.03
2018-05-31T20:54:53.844Z,8.47
2018-05-31T20:59:56.412Z,7.80
2018-05-31T21:04:59.022Z,8.40
2018-05-31T21:10:01.699Z,8.82
2018-05-31T21:15:04.948Z,9.45
2018-05-31T21:20:07.588Z,8.43
2018-05-31T21:25:10.083Z,9.20
2018-05-31T21:30:12.621Z,8.77
2018-05-31T21:35:15.338Z,8.95
2018-05-31T21:40:18.677Z,9.00
2018-05-31T21:45:21.251Z,9.25
2018-05-31T21:50:28.375Z,9.25
2018-05-31T21:55:30.901Z,9.43
2018-05-31T22:00:39.116Z,8.85
2018-05-31T22:05:41.764Z,9.02
2018-05-31T22:10:44.271Z,9.20
2018-05-31T22:15:47.589Z,9.70
2018-05-31T22:20:50.167Z,10.13
2018-05-31T22:25:55.545Z,9.83
2018-05-31T22:30:58.089Z,10.10
2018-05-31T22:36:00.641Z,9.90
2018-05-31T22:41:03.219Z,10.10
2018-05-31T22:46:08.959Z,10.98
2018-05-31T22:51:11.482Z,9.90
2018-05-31T22:56:14.037Z,10.23
2018-05-31T23:01:16.566Z,11.33
2018-05-31T23:06:19.293Z,10.55
2018-05-31T23:11:22.238Z,10.02
2018-05-31T23:16:24.786Z,11.10
2018-05-31T23:21:27.328Z,11.32
2018-05-31T23:26:29.983Z,11.68
2018-05-31T23:31:35.993Z,12.27
2018-05-31T23:36:39.517Z,13.60
2018-05-31T23:41:42.051Z,14.35
2018-05-31T23:46:44.577Z,15.75
2018-05-31T23:51:47.132Z,15.20
2018-05-31T23:56:49.693Z,14.30
